sensor_id;sensor_type;location;lat;lon;timestamp;pressure;altitude;pressure_sealevel;temperature;humidity
65872;BME280;52653;50.080;21.992;2023-04-26T00:02:04;98257.49;;;6.29;98.02
65872;BME280;52653;50.080;21.992;2023-04-26T00:04:36;98257.13;;;6.30;97.77
65872;BME280;52653;50.080;21.992;2023-04-26T00:07:29;98254.17;;;6.31;97.77
65872;BME280;52653;50.080;21.992;2023-04-26T00:10:02;98253.31;;;6.29;97.58
65872;BME280;52653;50.080;21.992;2023-04-26T00:12:38;98253.33;;;6.28;97.57
65872;BME280;52653;50.080;21.992;2023-04-26T00:15:12;98250.71;;;6.27;97.64
65872;BME280;52653;50.080;21.992;2023-04-26T00:17:47;98251.75;;;6.28;97.68
65872;BME280;52653;50.080;21.992;2023-04-26T00:20:21;98251.94;;;6.28;97.69
65872;BME280;52653;50.080;21.992;2023-04-26T00:23:13;98246.17;;;6.29;97.60
65872;BME280;52653;50.080;21.992;2023-04-26T00:25:46;98249.31;;;6.29;97.68
65872;BME280;52653;50.080;21.992;2023-04-26T00:28:19;98250.88;;;6.29;97.54
65872;BME280;52653;50.080;21.992;2023-04-26T00:30:54;98250.52;;;6.29;97.51
65872;BME280;52653;50.080;21.992;2023-04-26T00:33:28;98253.13;;;6.30;97.60
65872;BME280;52653;50.080;21.992;2023-04-26T00:36:01;98255.73;;;6.30;97.43
65872;BME280;52653;50.080;21.992;2023-04-26T00:38:38;98255.74;;;6.30;97.50
65872;BME280;52653;50.080;21.992;2023-04-26T00:41:20;98260.29;;;6.28;97.31
65872;BME280;52653;50.080;21.992;2023-04-26T00:43:54;98265.52;;;6.27;97.38
65872;BME280;52653;50.080;21.992;2023-04-26T00:46:26;98261.86;;;6.26;97.35
65872;BME280;52653;50.080;21.992;2023-04-26T00:49:01;98265.52;;;6.27;97.33
65872;BME280;52653;50.080;21.992;2023-04-26T00:51:37;98267.63;;;6.25;97.24
65872;BME280;52653;50.080;21.992;2023-04-26T00:54:10;98266.40;;;6.25;97.28
65872;BME280;52653;50.080;21.992;2023-04-26T00:56:43;98269.02;;;6.25;97.13
65872;BME280;52653;50.080;21.992;2023-04-26T00:59:16;98269.54;;;6.26;97.08
65872;BME280;52653;50.080;21.992;2023-04-26T01:01:51;98273.54;;;6.25;97.05
65872;BME280;52653;50.080;21.992;2023-04-26T01:04:28;98271.45;;;6.25;97.14
65872;BME280;52653;50.080;21.992;2023-04-26T01:07:03;98270.77;;;6.24;97.03
65872;BME280;52653;50.080;21.992;2023-04-26T01:09:36;98271.11;;;6.23;96.85
65872;BME280;52653;50.080;21.992;2023-04-26T01:12:10;98272.16;;;6.22;96.77
65872;BME280;52653;50.080;21.992;2023-04-26T01:14:44;98277.03;;;6.19;96.69
65872;BME280;52653;50.080;21.992;2023-04-26T01:17:20;98276.00;;;6.18;96.86
65872;BME280;52653;50.080;21.992;2023-04-26T01:19:56;98282.27;;;6.17;96.72
65872;BME280;52653;50.080;21.992;2023-04-26T01:22:49;98288.73;;;6.15;96.62
65872;BME280;52653;50.080;21.992;2023-04-26T01:25:22;98287.89;;;6.12;96.46
65872;BME280;52653;50.080;21.992;2023-04-26T01:27:55;98291.71;;;6.09;96.72
65872;BME280;52653;50.080;21.992;2023-04-26T01:30:28;98287.19;;;6.07;96.75
65872;BME280;52653;50.080;21.992;2023-04-26T01:33:07;98288.95;;;6.06;96.87
65872;BME280;52653;50.080;21.992;2023-04-26T01:35:40;98289.12;;;6.06;96.87
65872;BME280;52653;50.080;21.992;2023-04-26T01:38:13;98286.15;;;6.08;96.84
65872;BME280;52653;50.080;21.992;2023-04-26T01:40:58;98290.67;;;6.07;96.73
65872;BME280;52653;50.080;21.992;2023-04-26T01:43:30;98295.38;;;6.07;96.71
65872;BME280;52653;50.080;21.992;2023-04-26T01:46:06;98295.56;;;6.06;97.13
65872;BME280;52653;50.080;21.992;2023-04-26T01:48:52;98295.73;;;6.06;97.13
65872;BME280;52653;50.080;21.992;2023-04-26T01:51:35;98291.73;;;6.06;97.14
65872;BME280;52653;50.080;21.992;2023-04-26T01:54:17;98290.17;;;6.05;97.42
65872;BME280;52653;50.080;21.992;2023-04-26T01:56:50;98290.52;;;6.06;97.49
65872;BME280;52653;50.080;21.992;2023-04-26T01:59:23;98291.20;;;6.06;97.64
65872;BME280;52653;50.080;21.992;2023-04-26T02:02:00;98293.45;;;6.08;97.48
65872;BME280;52653;50.080;21.992;2023-04-26T02:04:42;98296.59;;;6.09;97.58
65872;BME280;52653;50.080;21.992;2023-04-26T02:07:18;98297.98;;;6.08;97.50
65872;BME280;52653;50.080;21.992;2023-04-26T02:09:51;98300.77;;;6.08;97.66
65872;BME280;52653;50.080;21.992;2023-04-26T02:12:26;98300.77;;;6.08;97.80
65872;BME280;52653;50.080;21.992;2023-04-26T02:14:59;98301.82;;;6.10;97.65
65872;BME280;52653;50.080;21.992;2023-04-26T02:17:32;98299.38;;;6.11;97.73
65872;BME280;52653;50.080;21.992;2023-04-26T02:20:06;98304.25;;;6.12;97.59
65872;BME280;52653;50.080;21.992;2023-04-26T02:22:52;98303.02;;;6.15;97.40
65872;BME280;52653;50.080;21.992;2023-04-26T02:25:37;98300.39;;;6.17;97.42
65872;BME280;52653;50.080;21.992;2023-04-26T02:28:13;98301.77;;;6.18;97.07
65872;BME280;52653;50.080;21.992;2023-04-26T02:30:51;98302.64;;;6.19;96.83
65872;BME280;52653;50.080;21.992;2023-04-26T02:33:34;98307.16;;;6.20;96.55
65872;BME280;52653;50.080;21.992;2023-04-26T02:36:10;98303.33;;;6.19;96.24
65872;BME280;52653;50.080;21.992;2023-04-26T02:38:42;98307.00;;;6.18;95.99
65872;BME280;52653;50.080;21.992;2023-04-26T02:41:17;98312.41;;;6.15;95.46
65872;BME280;52653;50.080;21.992;2023-04-26T02:43:49;98313.98;;;6.13;95.45
65872;BME280;52653;50.080;21.992;2023-04-26T02:46:22;98312.08;;;6.14;95.57
65872;BME280;52653;50.080;21.992;2023-04-26T02:49:04;98317.65;;;6.14;95.28
65872;BME280;52653;50.080;21.992;2023-04-26T02:51:40;98313.64;;;6.14;95.10
65872;BME280;52653;50.080;21.992;2023-04-26T02:54:13;98319.21;;;6.13;95.03
65872;BME280;52653;50.080;21.992;2023-04-26T02:56:50;98320.27;;;6.13;94.68
65872;BME280;52653;50.080;21.992;2023-04-26T02:59:43;98322.71;;;6.11;94.52
65872;BME280;52653;50.080;21.992;2023-04-26T03:02:19;98326.20;;;6.06;94.28
65872;BME280;52653;50.080;21.992;2023-04-26T03:05:13;98323.44;;;6.01;94.06
65872;BME280;52653;50.080;21.992;2023-04-26T03:07:46;98326.06;;;5.97;94.09
65872;BME280;52653;50.080;21.992;2023-04-26T03:10:20;98322.58;;;5.94;94.06
65872;BME280;52653;50.080;21.992;2023-04-26T03:12:58;98327.13;;;5.91;94.13
65872;BME280;52653;50.080;21.992;2023-04-26T03:15:34;98332.33;;;5.89;94.22
65872;BME280;52653;50.080;21.992;2023-04-26T03:18:28;98339.13;;;5.86;94.11
65872;BME280;52653;50.080;21.992;2023-04-26T03:21:20;98347.46;;;5.83;94.00
65872;BME280;52653;50.080;21.992;2023-04-26T03:23:57;98350.43;;;5.81;93.80
65872;BME280;52653;50.080;21.992;2023-04-26T03:26:38;98356.89;;;5.77;93.67
65872;BME280;52653;50.080;21.992;2023-04-26T03:29:11;98361.42;;;5.74;93.44
65872;BME280;52653;50.080;21.992;2023-04-26T03:32:04;98367.17;;;5.74;93.29
65872;BME280;52653;50.080;21.992;2023-04-26T03:34:57;98368.73;;;5.74;93.36
65872;BME280;52653;50.080;21.992;2023-04-26T03:37:42;98371.16;;;5.75;93.24
65872;BME280;52653;50.080;21.992;2023-04-26T03:40:36;98376.20;;;5.76;93.09
65872;BME280;52653;50.080;21.992;2023-04-26T03:43:19;98377.92;;;5.80;92.99
65872;BME280;52653;50.080;21.992;2023-04-26T03:45:53;98380.55;;;5.84;92.79
65872;BME280;52653;50.080;21.992;2023-04-26T03:48:46;98381.94;;;5.90;92.84
65872;BME280;52653;50.080;21.992;2023-04-26T03:51:39;98387.33;;;5.94;92.25
65872;BME280;52653;50.080;21.992;2023-04-26T03:54:22;98392.02;;;5.97;91.98
65872;BME280;52653;50.080;21.992;2023-04-26T03:57:06;98392.71;;;6.01;91.75
65872;BME280;52653;50.080;21.992;2023-04-26T03:59:52;98397.56;;;6.06;91.60
65872;BME280;52653;50.080;21.992;2023-04-26T04:02:28;98399.66;;;6.06;90.49
65872;BME280;52653;50.080;21.992;2023-04-26T04:05:01;98403.83;;;6.10;90.13
65872;BME280;52653;50.080;21.992;2023-04-26T04:07:56;98406.63;;;6.12;89.44
65872;BME280;52653;50.080;21.992;2023-04-26T04:10:33;98411.31;;;6.13;88.88
65872;BME280;52653;50.080;21.992;2023-04-26T04:13:27;98410.58;;;6.18;88.74
65872;BME280;52653;50.080;21.992;2023-04-26T04:16:03;98414.59;;;6.23;88.19
65872;BME280;52653;50.080;21.992;2023-04-26T04:18:57;98422.41;;;6.25;87.95
65872;BME280;52653;50.080;21.992;2023-04-26T04:21:50;98418.73;;;6.30;87.59
65872;BME280;52653;50.080;21.992;2023-04-26T04:24:43;98420.29;;;6.36;87.17
65872;BME280;52653;50.080;21.992;2023-04-26T04:27:38;98428.29;;;6.39;86.08
65872;BME280;52653;50.080;21.992;2023-04-26T04:30:32;98429.65;;;6.42;85.16
65872;BME280;52653;50.080;21.992;2023-04-26T04:33:26;98434.17;;;6.47;84.79
65872;BME280;52653;50.080;21.992;2023-04-26T04:36:00;98436.42;;;6.52;84.40
65872;BME280;52653;50.080;21.992;2023-04-26T04:38:33;98442.14;;;6.59;83.76
65872;BME280;52653;50.080;21.992;2023-04-26T04:41:20;98441.60;;;6.66;83.01
65872;BME280;52653;50.080;21.992;2023-04-26T04:43:53;98449.91;;;6.71;82.38
65872;BME280;52653;50.080;21.992;2023-04-26T04:46:26;98444.14;;;6.79;82.52
65872;BME280;52653;50.080;21.992;2023-04-26T04:49:03;98447.23;;;6.89;81.84
65872;BME280;52653;50.080;21.992;2023-04-26T04:51:45;98452.59;;;6.96;80.46
65872;BME280;52653;50.080;21.992;2023-04-26T04:54:22;98450.45;;;7.05;80.20
65872;BME280;52653;50.080;21.992;2023-04-26T04:57:15;98450.76;;;7.11;79.60
65872;BME280;52653;50.080;21.992;2023-04-26T05:00:10;98453.65;;;7.21;79.01
65872;BME280;52653;50.080;21.992;2023-04-26T05:03:04;98459.75;;;7.24;77.63
65872;BME280;52653;50.080;21.992;2023-04-26T05:05:39;98462.54;;;7.23;76.74
65872;BME280;52653;50.080;21.992;2023-04-26T05:08:12;98457.09;;;7.31;77.03
65872;BME280;52653;50.080;21.992;2023-04-26T05:11:05;98466.63;;;7.36;76.38
65872;BME280;52653;50.080;21.992;2023-04-26T05:13:43;98467.98;;;7.44;76.17
65872;BME280;52653;50.080;21.992;2023-04-26T05:16:16;98463.23;;;7.48;75.51
65872;BME280;52653;50.080;21.992;2023-04-26T05:18:48;98476.23;;;7.59;75.28
65872;BME280;52653;50.080;21.992;2023-04-26T05:21:22;98476.89;;;7.66;74.73
65872;BME280;52653;50.080;21.992;2023-04-26T05:23:54;98481.64;;;7.83;74.37
65872;BME280;52653;50.080;21.992;2023-04-26T05:26:28;98485.86;;;7.99;74.07
65872;BME280;52653;50.080;21.992;2023-04-26T05:29:30;98491.34;;;8.30;74.77
65872;BME280;52653;50.080;21.992;2023-04-26T05:32:10;98492.05;;;8.47;72.10
65872;BME280;52653;50.080;21.992;2023-04-26T05:34:59;98495.17;;;8.48;69.99
65872;BME280;52653;50.080;21.992;2023-04-26T05:37:35;98500.79;;;8.47;69.49
65872;BME280;52653;50.080;21.992;2023-04-26T05:40:12;98501.63;;;8.51;70.11
65872;BME280;52653;50.080;21.992;2023-04-26T05:43:08;98503.01;;;8.52;69.42
65872;BME280;52653;50.080;21.992;2023-04-26T05:45:41;98508.35;;;8.59;69.41
65872;BME280;52653;50.080;21.992;2023-04-26T05:48:26;98510.52;;;8.52;68.42
65872;BME280;52653;50.080;21.992;2023-04-26T05:51:02;98513.62;;;8.57;68.04
65872;BME280;52653;50.080;21.992;2023-04-26T05:53:39;98519.17;;;8.59;68.08
65872;BME280;52653;50.080;21.992;2023-04-26T05:56:12;98526.33;;;8.61;67.46
65872;BME280;52653;50.080;21.992;2023-04-26T05:58:48;98526.08;;;8.53;66.59
65872;BME280;52653;50.080;21.992;2023-04-26T06:01:23;98528.94;;;8.46;66.59
65872;BME280;52653;50.080;21.992;2023-04-26T06:04:16;98533.95;;;8.53;67.82
65872;BME280;52653;50.080;21.992;2023-04-26T06:07:09;98530.11;;;8.52;67.06
65872;BME280;52653;50.080;21.992;2023-04-26T06:09:42;98537.95;;;8.53;67.13
65872;BME280;52653;50.080;21.992;2023-04-26T06:12:35;98536.57;;;8.51;66.54
65872;BME280;52653;50.080;21.992;2023-04-26T06:15:28;98541.14;;;8.49;65.51
65872;BME280;52653;50.080;21.992;2023-04-26T06:18:09;98548.14;;;8.48;65.50
65872;BME280;52653;50.080;21.992;2023-04-26T06:20:46;98549.59;;;8.60;66.02
65872;BME280;52653;50.080;21.992;2023-04-26T06:23:20;98550.89;;;8.69;65.02
65872;BME280;52653;50.080;21.992;2023-04-26T06:25:53;98557.27;;;8.78;63.94
65872;BME280;52653;50.080;21.992;2023-04-26T06:28:27;98558.85;;;8.93;64.27
65872;BME280;52653;50.080;21.992;2023-04-26T06:31:00;98552.46;;;9.00;63.34
65872;BME280;52653;50.080;21.992;2023-04-26T06:33:40;98560.56;;;8.95;62.00
65872;BME280;52653;50.080;21.992;2023-04-26T06:36:16;98553.02;;;8.83;61.80
65872;BME280;52653;50.080;21.992;2023-04-26T06:38:48;98557.86;;;8.86;62.64
65872;BME280;52653;50.080;21.992;2023-04-26T06:41:21;98562.60;;;8.85;62.87
65872;BME280;52653;50.080;21.992;2023-04-26T06:43:55;98561.15;;;8.91;64.29
65872;BME280;52653;50.080;21.992;2023-04-26T06:46:52;98564.48;;;9.04;63.88
65872;BME280;52653;50.080;21.992;2023-04-26T06:49:26;98563.98;;;9.16;64.30
65872;BME280;52653;50.080;21.992;2023-04-26T06:52:02;98562.43;;;9.29;63.28
65872;BME280;52653;50.080;21.992;2023-04-26T06:54:39;98563.57;;;9.35;63.12
65872;BME280;52653;50.080;21.992;2023-04-26T06:57:28;98569.17;;;9.48;63.39
65872;BME280;52653;50.080;21.992;2023-04-26T07:00:16;98566.16;;;9.51;62.51
65872;BME280;52653;50.080;21.992;2023-04-26T07:02:49;98568.77;;;9.51;62.18
65872;BME280;52653;50.080;21.992;2023-04-26T07:05:24;98569.95;;;9.55;61.97
65872;BME280;52653;50.080;21.992;2023-04-26T07:07:57;98571.52;;;9.55;61.53
65872;BME280;52653;50.080;21.992;2023-04-26T07:10:29;98573.64;;;9.55;61.36
65872;BME280;52653;50.080;21.992;2023-04-26T07:13:09;98576.61;;;9.41;61.82
65872;BME280;52653;50.080;21.992;2023-04-26T07:15:49;98578.13;;;9.46;62.50
65872;BME280;52653;50.080;21.992;2023-04-26T07:18:23;98583.01;;;9.60;63.05
65872;BME280;52653;50.080;21.992;2023-04-26T07:20:56;98588.20;;;9.64;61.93
65872;BME280;52653;50.080;21.992;2023-04-26T07:23:37;98584.05;;;9.73;62.08
65872;BME280;52653;50.080;21.992;2023-04-26T07:26:12;98591.88;;;9.77;61.56
65872;BME280;52653;50.080;21.992;2023-04-26T07:28:45;98590.91;;;9.83;61.01
65872;BME280;52653;50.080;21.992;2023-04-26T07:31:21;98588.02;;;9.88;61.50
65872;BME280;52653;50.080;21.992;2023-04-26T07:33:56;98594.21;;;9.97;60.84
65872;BME280;52653;50.080;21.992;2023-04-26T07:36:29;98595.71;;;10.13;61.28
65872;BME280;52653;50.080;21.992;2023-04-26T07:39:12;98596.52;;;10.30;61.06
65872;BME280;52653;50.080;21.992;2023-04-26T07:41:45;98597.63;;;10.47;60.15
65872;BME280;52653;50.080;21.992;2023-04-26T07:44:18;98601.98;;;10.39;58.95
65872;BME280;52653;50.080;21.992;2023-04-26T07:46:51;98600.32;;;10.43;59.27
65872;BME280;52653;50.080;21.992;2023-04-26T07:49:24;98596.96;;;10.55;59.97
65872;BME280;52653;50.080;21.992;2023-04-26T07:51:56;98596.21;;;10.68;58.32
65872;BME280;52653;50.080;21.992;2023-04-26T07:54:32;98599.13;;;10.71;58.44
65872;BME280;52653;50.080;21.992;2023-04-26T07:57:06;98600.31;;;10.83;57.94
65872;BME280;52653;50.080;21.992;2023-04-26T07:59:39;98597.71;;;10.91;58.06
65872;BME280;52653;50.080;21.992;2023-04-26T08:02:12;98596.62;;;11.02;58.31
65872;BME280;52653;50.080;21.992;2023-04-26T08:04:49;98597.43;;;10.97;57.55
65872;BME280;52653;50.080;21.992;2023-04-26T08:07:24;98593.30;;;10.93;56.95
65872;BME280;52653;50.080;21.992;2023-04-26T08:10:00;98597.04;;;10.71;56.35
65872;BME280;52653;50.080;21.992;2023-04-26T08:12:36;98595.67;;;10.69;57.58
65872;BME280;52653;50.080;21.992;2023-04-26T08:15:11;98595.99;;;10.71;56.75
65872;BME280;52653;50.080;21.992;2023-04-26T08:17:44;98598.02;;;10.74;57.39
65872;BME280;52653;50.080;21.992;2023-04-26T08:20:20;98609.75;;;10.66;56.27
65872;BME280;52653;50.080;21.992;2023-04-26T08:22:57;98607.27;;;10.57;55.48
65872;BME280;52653;50.080;21.992;2023-04-26T08:25:32;98610.42;;;10.47;54.36
65872;BME280;52653;50.080;21.992;2023-04-26T08:28:08;98598.63;;;10.69;55.08
65872;BME280;52653;50.080;21.992;2023-04-26T08:30:45;98600.31;;;10.83;54.96
65872;BME280;52653;50.080;21.992;2023-04-26T08:33:18;98598.89;;;10.94;53.75
65872;BME280;52653;50.080;21.992;2023-04-26T08:35:50;98598.90;;;10.93;53.37
65872;BME280;52653;50.080;21.992;2023-04-26T08:38:44;98598.83;;;10.98;53.38
65872;BME280;52653;50.080;21.992;2023-04-26T08:41:21;98594.11;;;10.96;53.15
65872;BME280;52653;50.080;21.992;2023-04-26T08:43:55;98591.44;;;10.98;53.53
65872;BME280;52653;50.080;21.992;2023-04-26T08:46:30;98587.24;;;11.15;53.53
65872;BME280;52653;50.080;21.992;2023-04-26T08:49:28;98587.79;;;11.39;53.08
65872;BME280;52653;50.080;21.992;2023-04-26T08:52:04;98581.18;;;11.53;53.11
65872;BME280;52653;50.080;21.992;2023-04-26T08:54:40;98589.82;;;11.60;52.03
65872;BME280;52653;50.080;21.992;2023-04-26T08:57:15;98592.70;;;11.57;50.81
65872;BME280;52653;50.080;21.992;2023-04-26T08:59:49;98591.95;;;11.43;49.31
65872;BME280;52653;50.080;21.992;2023-04-26T09:02:23;98600.80;;;11.22;49.07
65872;BME280;52653;50.080;21.992;2023-04-26T09:04:57;98604.13;;;11.04;48.49
65872;BME280;52653;50.080;21.992;2023-04-26T09:07:34;98599.67;;;11.08;49.29
65872;BME280;52653;50.080;21.992;2023-04-26T09:10:08;98608.29;;;11.34;48.32
65872;BME280;52653;50.080;21.992;2023-04-26T09:12:41;98602.20;;;11.30;46.46
65872;BME280;52653;50.080;21.992;2023-04-26T09:15:16;98602.96;;;11.18;47.60
65872;BME280;52653;50.080;21.992;2023-04-26T09:17:49;98605.98;;;11.26;48.31
65872;BME280;52653;50.080;21.992;2023-04-26T09:20:44;98608.23;;;11.27;48.18
65872;BME280;52653;50.080;21.992;2023-04-26T09:23:30;98617.66;;;11.39;48.65
65872;BME280;52653;50.080;21.992;2023-04-26T09:26:18;98622.27;;;11.61;48.66
65872;BME280;52653;50.080;21.992;2023-04-26T09:29:11;98624.05;;;11.77;47.59
65872;BME280;52653;50.080;21.992;2023-04-26T09:31:48;98615.32;;;11.74;46.66
65872;BME280;52653;50.080;21.992;2023-04-26T09:34:46;98617.21;;;11.60;46.56
65872;BME280;52653;50.080;21.992;2023-04-26T09:37:21;98621.35;;;11.47;47.13
65872;BME280;52653;50.080;21.992;2023-04-26T09:39:55;98620.43;;;11.40;47.61
65872;BME280;52653;50.080;21.992;2023-04-26T09:42:27;98624.91;;;11.36;48.30
65872;BME280;52653;50.080;21.992;2023-04-26T09:45:13;98620.17;;;11.45;49.15
65872;BME280;52653;50.080;21.992;2023-04-26T09:47:51;98622.29;;;11.52;49.24
65872;BME280;52653;50.080;21.992;2023-04-26T09:50:37;98624.14;;;11.72;49.66
65872;BME280;52653;50.080;21.992;2023-04-26T09:53:12;98632.37;;;11.74;47.48
65872;BME280;52653;50.080;21.992;2023-04-26T09:56:04;98628.69;;;11.74;47.56
65872;BME280;52653;50.080;21.992;2023-04-26T09:58:58;98635.76;;;11.82;47.95
65872;BME280;52653;50.080;21.992;2023-04-26T10:01:32;98637.40;;;11.69;46.61
65872;BME280;52653;50.080;21.992;2023-04-26T10:04:10;98634.84;;;11.49;47.02
65872;BME280;52653;50.080;21.992;2023-04-26T10:07:04;98642.73;;;11.23;47.68
65872;BME280;52653;50.080;21.992;2023-04-26T10:09:58;98644.02;;;11.01;47.92
65872;BME280;52653;50.080;21.992;2023-04-26T10:12:32;98642.55;;;10.86;48.11
65872;BME280;52653;50.080;21.992;2023-04-26T10:15:26;98648.55;;;10.74;48.61
65872;BME280;52653;50.080;21.992;2023-04-26T10:18:11;98650.64;;;10.65;47.94
65872;BME280;52653;50.080;21.992;2023-04-26T10:21:09;98658.29;;;10.59;48.48
65872;BME280;52653;50.080;21.992;2023-04-26T10:23:44;98659.42;;;10.53;48.34
65872;BME280;52653;50.080;21.992;2023-04-26T10:26:47;98657.52;;;10.63;49.36
65872;BME280;52653;50.080;21.992;2023-04-26T10:36:10;98662.60;;;10.83;49.55
65872;BME280;52653;50.080;21.992;2023-04-26T10:39:19;98660.33;;;10.72;49.01
65872;BME280;52653;50.080;21.992;2023-04-26T10:42:18;98662.27;;;10.62;49.73
65872;BME280;52653;50.080;21.992;2023-04-26T10:45:25;98657.84;;;10.53;50.38
65872;BME280;52653;50.080;21.992;2023-04-26T10:48:16;98657.87;;;10.62;49.77
65872;BME280;52653;50.080;21.992;2023-04-26T10:51:11;98655.06;;;10.62;47.16
65872;BME280;52653;50.080;21.992;2023-04-26T10:54:02;98654.54;;;10.72;46.74
65872;BME280;52653;50.080;21.992;2023-04-26T10:56:51;98650.98;;;10.94;46.54
65872;BME280;52653;50.080;21.992;2023-04-26T10:59:27;98649.05;;;11.40;46.60
65872;BME280;52653;50.080;21.992;2023-04-26T11:02:50;98649.58;;;11.99;45.58
65872;BME280;52653;50.080;21.992;2023-04-26T11:08:27;98647.27;;;12.67;42.90
65872;BME280;52653;50.080;21.992;2023-04-26T11:11:09;98654.74;;;12.50;42.39
65872;BME280;52653;50.080;21.992;2023-04-26T11:13:44;98651.93;;;12.20;42.50
65872;BME280;52653;50.080;21.992;2023-04-26T11:16:18;98663.08;;;11.94;43.35
65872;BME280;52653;50.080;21.992;2023-04-26T11:18:54;98665.93;;;11.65;44.29
65872;BME280;52653;50.080;21.992;2023-04-26T11:21:30;98669.45;;;11.64;45.25
65872;BME280;52653;50.080;21.992;2023-04-26T11:24:03;98669.95;;;11.58;43.45
65872;BME280;52653;50.080;21.992;2023-04-26T11:26:36;98675.56;;;11.59;41.87
65872;BME280;52653;50.080;21.992;2023-04-26T11:29:09;98672.23;;;11.49;41.91
65872;BME280;52653;50.080;21.992;2023-04-26T11:31:43;98671.34;;;11.33;42.22
65872;BME280;52653;50.080;21.992;2023-04-26T11:34:32;98673.09;;;11.14;43.57
65872;BME280;52653;50.080;21.992;2023-04-26T11:37:09;98678.66;;;10.98;44.41
65872;BME280;52653;50.080;21.992;2023-04-26T11:39:49;98680.63;;;10.96;45.33
65872;BME280;52653;50.080;21.992;2023-04-26T11:42:25;98684.35;;;10.93;45.78
65872;BME280;52653;50.080;21.992;2023-04-26T11:44:57;98682.80;;;11.02;45.79
65872;BME280;52653;50.080;21.992;2023-04-26T11:47:33;98680.61;;;11.25;44.69
65872;BME280;52653;50.080;21.992;2023-04-26T11:50:08;98676.52;;;11.54;43.95
65872;BME280;52653;50.080;21.992;2023-04-26T11:52:41;98673.36;;;11.80;43.55
65872;BME280;52653;50.080;21.992;2023-04-26T11:55:14;98679.66;;;11.99;42.82
65872;BME280;52653;50.080;21.992;2023-04-26T11:57:46;98679.89;;;12.03;42.84
65872;BME280;52653;50.080;21.992;2023-04-26T12:00:22;98673.95;;;12.02;43.05
65872;BME280;52653;50.080;21.992;2023-04-26T12:02:54;98680.06;;;11.96;43.25
65872;BME280;52653;50.080;21.992;2023-04-26T12:05:29;98676.65;;;11.83;42.62
65872;BME280;52653;50.080;21.992;2023-04-26T12:08:02;98678.84;;;11.70;43.11
65872;BME280;52653;50.080;21.992;2023-04-26T12:10:37;98682.42;;;11.75;43.59
65872;BME280;52653;50.080;21.992;2023-04-26T12:13:14;98688.44;;;11.73;43.33
65872;BME280;52653;50.080;21.992;2023-04-26T12:15:47;98690.17;;;11.65;42.71
65872;BME280;52653;50.080;21.992;2023-04-26T12:18:22;98685.98;;;11.56;43.13
65872;BME280;52653;50.080;21.992;2023-04-26T12:21:02;98688.52;;;11.43;43.45
65872;BME280;52653;50.080;21.992;2023-04-26T12:23:39;98689.79;;;11.31;43.74
65872;BME280;52653;50.080;21.992;2023-04-26T12:26:12;98691.44;;;11.18;43.41
65872;BME280;52653;50.080;21.992;2023-04-26T12:28:45;98686.55;;;11.16;43.96
65872;BME280;52653;50.080;21.992;2023-04-26T12:31:18;98702.09;;;11.11;44.52
65872;BME280;52653;50.080;21.992;2023-04-26T12:33:52;98696.02;;;11.17;44.72
65872;BME280;52653;50.080;21.992;2023-04-26T12:36:25;98704.50;;;11.14;43.47
65872;BME280;52653;50.080;21.992;2023-04-26T12:38:58;98705.09;;;11.31;43.26
65872;BME280;52653;50.080;21.992;2023-04-26T12:41:33;98705.73;;;11.42;43.11
65872;BME280;52653;50.080;21.992;2023-04-26T12:44:26;98706.98;;;11.68;42.48
65872;BME280;52653;50.080;21.992;2023-04-26T12:47:01;98705.73;;;11.88;41.23
65872;BME280;52653;50.080;21.992;2023-04-26T12:49:34;98702.66;;;11.91;40.99
65872;BME280;52653;50.080;21.992;2023-04-26T12:52:07;98708.27;;;12.01;40.09
65872;BME280;52653;50.080;21.992;2023-04-26T12:54:40;98701.52;;;12.12;39.92
65872;BME280;52653;50.080;21.992;2023-04-26T12:57:15;98708.13;;;12.23;39.45
65872;BME280;52653;50.080;21.992;2023-04-26T12:59:47;98704.61;;;12.39;40.23
65872;BME280;52653;50.080;21.992;2023-04-26T13:02:20;98704.77;;;12.68;40.68
65872;BME280;52653;50.080;21.992;2023-04-26T13:04:53;98705.27;;;12.77;40.08
65872;BME280;52653;50.080;21.992;2023-04-26T13:07:27;98707.23;;;12.90;39.81
65872;BME280;52653;50.080;21.992;2023-04-26T13:10:00;98702.55;;;12.94;39.86
65872;BME280;52653;50.080;21.992;2023-04-26T13:12:34;98708.33;;;12.96;40.10
65872;BME280;52653;50.080;21.992;2023-04-26T13:15:08;98712.27;;;12.79;39.23
65872;BME280;52653;50.080;21.992;2023-04-26T13:17:41;98715.70;;;12.53;39.09
65872;BME280;52653;50.080;21.992;2023-04-26T13:20:14;98717.02;;;12.18;39.87
65872;BME280;52653;50.080;21.992;2023-04-26T13:22:47;98721.30;;;11.73;40.90
65872;BME280;52653;50.080;21.992;2023-04-26T13:25:21;98721.92;;;11.49;42.17
65872;BME280;52653;50.080;21.992;2023-04-26T13:27:54;98722.76;;;11.43;42.89
65872;BME280;52653;50.080;21.992;2023-04-26T13:30:29;98724.63;;;11.46;41.92
65872;BME280;52653;50.080;21.992;2023-04-26T13:33:04;98726.41;;;11.72;40.33
65872;BME280;52653;50.080;21.992;2023-04-26T13:35:39;98732.61;;;12.04;39.58
65872;BME280;52653;50.080;21.992;2023-04-26T13:38:12;98732.53;;;12.40;38.74
65872;BME280;52653;50.080;21.992;2023-04-26T13:40:45;98733.36;;;12.65;36.96
65872;BME280;52653;50.080;21.992;2023-04-26T13:43:18;98734.34;;;12.68;36.47
65872;BME280;52653;50.080;21.992;2023-04-26T13:45:53;98737.13;;;12.62;35.84
65872;BME280;52653;50.080;21.992;2023-04-26T13:48:29;98737.36;;;12.67;36.64
65872;BME280;52653;50.080;21.992;2023-04-26T13:51:12;98736.13;;;12.60;36.76
65872;BME280;52653;50.080;21.992;2023-04-26T13:54:00;98738.95;;;12.52;36.68
65872;BME280;52653;50.080;21.992;2023-04-26T13:56:45;98741.06;;;12.52;37.72
65872;BME280;52653;50.080;21.992;2023-04-26T13:59:28;98736.23;;;12.40;37.73
65872;BME280;52653;50.080;21.992;2023-04-26T14:02:14;98738.03;;;12.38;38.17
65872;BME280;52653;50.080;21.992;2023-04-26T14:04:51;98740.40;;;12.18;38.27
65872;BME280;52653;50.080;21.992;2023-04-26T14:07:27;98743.39;;;11.85;37.92